Time;durP1;ratioP1;P1;durP2;ratioP2;P2;SDS_P1;SDS_P2;PMS_P1;PMS_P2;Temp;Humidity;BMP_temperature;BMP_pressure;BME280_temperature;BME280_humidity;BME280_pressure;Samples;Min_cycle;Max_cycle;Signal;HPM_P1;HPM_P2
2024/02/04 00:00:13;;;;;;;5.87;2.10;;;6.90;99.90;;;;;;4980332;28;20525;-64
2024/02/04 00:02:41;;;;;;;7.30;1.90;;;6.90;99.90;;;;;;4978719;28;20532;-64
2024/02/04 00:05:10;;;;;;;6.80;2.03;;;6.90;99.90;;;;;;4978959;28;20489;-63
2024/02/04 00:07:38;;;;;;;6.10;2.10;;;6.90;99.90;;;;;;4977558;28;20557;-63
2024/02/04 00:10:07;;;;;;;9.27;2.67;;;6.90;99.90;;;;;;4980736;28;21049;-65
2024/02/04 00:12:35;;;;;;;7.77;2.20;;;6.90;99.90;;;;;;4977558;28;20499;-68
2024/02/04 00:15:05;;;;;;;6.10;1.70;;;6.90;99.90;;;;;;4993036;28;21140;-63
2024/02/04 00:17:33;;;;;;;10.33;2.73;;;6.90;99.90;;;;;;4997592;28;20477;-63
2024/02/04 00:20:02;;;;;;;6.87;2.60;;;6.90;99.90;;;;;;5000252;28;20488;-63
2024/02/04 00:22:33;;;;;;;6.63;2.10;;;6.90;99.90;;;;;;4994059;28;20494;-63
2024/02/04 00:25:04;;;;;;;9.27;2.10;;;6.90;99.90;;;;;;4994639;28;20492;-64
2024/02/04 00:27:33;;;;;;;4.80;1.90;;;6.90;99.90;;;;;;4988442;28;20501;-64
2024/02/04 00:30:01;;;;;;;6.33;2.10;;;6.90;99.90;;;;;;4984270;28;20484;-64
2024/02/04 00:32:29;;;;;;;8.97;2.67;;;6.80;99.90;;;;;;4976261;28;21333;-63
2024/02/04 00:34:57;;;;;;;7.10;2.27;;;6.80;99.90;;;;;;4979101;28;20501;-63
2024/02/04 00:37:25;;;;;;;7.97;1.60;;;6.80;99.90;;;;;;4977624;28;20958;-66
2024/02/04 00:39:55;;;;;;;7.47;1.83;;;6.80;99.90;;;;;;4977306;28;20608;-65
2024/02/04 00:42:23;;;;;;;9.33;2.10;;;6.80;99.90;;;;;;4975828;28;20481;-63
2024/02/04 00:44:51;;;;;;;10.67;2.27;;;6.80;99.90;;;;;;4978819;28;20507;-64
2024/02/04 00:47:19;;;;;;;5.97;2.33;;;6.80;99.90;;;;;;4977215;28;20513;-64
2024/02/04 00:49:47;;;;;;;7.70;2.37;;;6.80;99.90;;;;;;4977559;28;20529;-64
2024/02/04 00:52:15;;;;;;;3.50;1.60;;;6.80;99.90;;;;;;4980834;28;20489;-63
2024/02/04 00:54:43;;;;;;;5.10;2.07;;;6.80;99.90;;;;;;4975941;28;20584;-64
2024/02/04 00:57:12;;;;;;;10.60;2.53;;;6.80;99.90;;;;;;4977533;28;20473;-63
2024/02/04 00:59:40;;;;;;;8.80;1.90;;;6.80;99.90;;;;;;4980707;28;20469;-63
2024/02/04 01:02:08;;;;;;;6.77;2.30;;;6.80;99.90;;;;;;4978256;28;20509;-63
2024/02/04 01:04:36;;;;;;;6.43;2.20;;;6.80;99.90;;;;;;4976830;28;20547;-63
2024/02/04 01:07:04;;;;;;;10.50;2.50;;;6.80;99.90;;;;;;4979524;28;20473;-63
2024/02/04 01:09:33;;;;;;;8.43;2.20;;;6.80;99.90;;;;;;4978480;28;21488;-63
2024/02/04 01:12:01;;;;;;;10.50;2.23;;;6.80;99.90;;;;;;4977476;28;20501;-64
2024/02/04 01:14:30;;;;;;;9.10;4.20;;;6.80;99.90;;;;;;4980094;28;20565;-64
2024/02/04 01:16:58;;;;;;;10.60;2.17;;;6.80;99.90;;;;;;4976938;28;20603;-64
2024/02/04 01:19:26;;;;;;;4.47;2.27;;;6.80;99.90;;;;;;4977386;28;20485;-63
2024/02/04 01:21:54;;;;;;;6.13;2.03;;;6.90;99.90;;;;;;4976555;28;20543;-63
2024/02/04 01:24:22;;;;;;;7.50;2.23;;;6.90;99.90;;;;;;4976457;28;20920;-66
2024/02/04 01:26:50;;;;;;;6.10;2.17;;;6.90;99.90;;;;;;4977660;28;20484;-66
2024/02/04 01:29:18;;;;;;;4.80;2.17;;;6.90;99.90;;;;;;4978596;28;20906;-66
2024/02/04 01:31:47;;;;;;;5.80;2.17;;;6.90;99.90;;;;;;4978182;28;20480;-66
2024/02/04 01:34:15;;;;;;;7.53;1.83;;;6.90;99.90;;;;;;4974896;28;20561;-66
2024/02/04 01:36:43;;;;;;;6.13;1.90;;;6.90;99.90;;;;;;4983100;28;20798;-67
2024/02/04 01:39:12;;;;;;;8.67;2.40;;;7.00;99.90;;;;;;4998685;28;20465;-66
2024/02/04 01:41:40;;;;;;;5.57;2.20;;;7.00;99.90;;;;;;4988160;28;20498;-66
2024/02/04 01:44:07;;;;;;;7.60;2.53;;;7.00;99.90;;;;;;4978456;28;20553;-66
2024/02/04 01:46:35;;;;;;;4.53;1.60;;;7.00;99.90;;;;;;4978165;28;20512;-66
2024/02/04 01:49:05;;;;;;;6.60;2.10;;;7.00;99.90;;;;;;4976631;28;20477;-66
2024/02/04 01:51:33;;;;;;;5.10;1.97;;;7.00;99.90;;;;;;4972398;28;20481;-66
2024/02/04 01:54:02;;;;;;;6.13;1.83;;;7.00;99.90;;;;;;4980878;28;20978;-66
2024/02/04 01:56:31;;;;;;;6.80;2.10;;;7.10;99.90;;;;;;4976052;28;20528;-66
2024/02/04 01:59:00;;;;;;;5.70;1.77;;;7.10;99.90;;;;;;4976796;28;20501;-66
2024/02/04 02:01:28;;;;;;;4.70;2.17;;;7.20;99.90;;;;;;4975578;28;20730;-66
2024/02/04 02:03:57;;;;;;;5.20;1.87;;;7.10;99.90;;;;;;4977925;28;20544;-66
2024/02/04 02:06:27;;;;;;;6.10;2.23;;;7.10;99.90;;;;;;4976360;28;20519;-66
2024/02/04 02:08:59;;;;;;;7.70;2.07;;;7.20;99.90;;;;;;4977546;28;20557;-66
2024/02/04 02:11:36;;;;;;;5.13;1.80;;;7.20;99.90;;;;;;4975180;28;20494;-66
2024/02/04 02:14:07;;;;;;;6.50;1.80;;;7.20;99.90;;;;;;4976169;28;20559;-66
2024/02/04 02:16:35;;;;;;;5.50;1.77;;;7.30;99.90;;;;;;4975141;28;20492;-66
2024/02/04 02:19:21;;;;;;;5.13;1.93;;;7.20;99.90;;;;;;4976725;28;20561;-66
2024/02/04 02:21:57;;;;;;;5.77;1.80;;;7.20;99.90;;;;;;4978547;28;21145;-66
2024/02/04 02:24:33;;;;;;;6.07;2.00;;;7.30;99.90;;;;;;4978528;28;20476;-63
2024/02/04 02:27:02;;;;;;;6.47;2.00;;;7.30;99.90;;;;;;4975361;28;20997;-63
2024/02/04 02:29:30;;;;;;;3.60;2.13;;;7.30;99.90;;;;;;4972467;28;20479;-63
2024/02/04 02:31:58;;;;;;;6.40;1.70;;;7.30;99.90;;;;;;4977072;28;20526;-62
2024/02/04 02:34:26;;;;;;;4.50;1.67;;;7.30;99.90;;;;;;4976313;28;20498;-63
2024/02/04 02:37:17;;;;;;;7.50;2.10;;;7.30;99.90;;;;;;4976018;28;20504;-63
2024/02/04 02:39:56;;;;;;;7.13;1.60;;;7.30;99.90;;;;;;4980323;28;20465;-63
2024/02/04 02:42:28;;;;;;;4.93;2.97;;;7.20;99.90;;;;;;4978826;28;20490;-63
2024/02/04 02:44:57;;;;;;;9.13;2.20;;;7.20;99.90;;;;;;4980369;28;20497;-63
2024/02/04 02:47:27;;;;;;;7.20;1.90;;;7.20;99.90;;;;;;4978334;28;20560;-63
2024/02/04 02:49:55;;;;;;;7.37;2.40;;;7.30;99.90;;;;;;4980233;28;20563;-64
2024/02/04 02:52:24;;;;;;;6.97;1.83;;;7.30;99.90;;;;;;4977963;28;20503;-63
2024/02/04 02:54:53;;;;;;;8.33;2.60;;;7.20;99.90;;;;;;4977882;28;21013;-64
2024/02/04 02:57:21;;;;;;;8.20;2.80;;;7.20;99.90;;;;;;4978771;28;20495;-63
2024/02/04 02:59:49;;;;;;;4.20;1.87;;;7.20;99.90;;;;;;4981687;28;20820;-65
2024/02/04 03:02:17;;;;;;;5.13;1.83;;;7.20;99.90;;;;;;4988031;28;20958;-63
2024/02/04 03:04:45;;;;;;;4.73;1.70;;;7.10;99.90;;;;;;4997944;28;20521;-64
2024/02/04 03:07:13;;;;;;;2.47;1.50;;;7.10;99.90;;;;;;4990899;28;20472;-63
2024/02/04 03:09:42;;;;;;;3.53;2.10;;;7.10;99.90;;;;;;4983564;28;20948;-63
2024/02/04 03:12:11;;;;;;;9.10;2.53;;;7.10;99.90;;;;;;4979776;28;20493;-63
2024/02/04 03:14:39;;;;;;;4.20;1.93;;;7.10;99.90;;;;;;4978808;28;21014;-63
2024/02/04 03:17:07;;;;;;;9.87;2.50;;;7.10;99.90;;;;;;4981919;28;20490;-63
2024/02/04 03:19:35;;;;;;;7.60;1.60;;;7.10;99.90;;;;;;4978577;28;20473;-63
2024/02/04 03:22:03;;;;;;;5.30;2.17;;;7.10;99.90;;;;;;4981608;28;21156;-63
2024/02/04 03:24:31;;;;;;;5.67;2.27;;;7.10;99.90;;;;;;4981112;28;20993;-63
2024/02/04 03:26:59;;;;;;;3.07;1.70;;;7.10;99.90;;;;;;4976254;28;20469;-63
2024/02/04 03:29:29;;;;;;;7.30;1.90;;;7.10;99.90;;;;;;4980198;28;20541;-63
2024/02/04 03:31:57;;;;;;;5.30;1.70;;;7.10;99.90;;;;;;4978816;28;20573;-63
2024/02/04 03:34:25;;;;;;;5.67;1.80;;;7.10;99.90;;;;;;4978947;28;21050;-64
2024/02/04 03:36:54;;;;;;;5.10;2.40;;;7.00;99.90;;;;;;4980664;28;20496;-63
2024/02/04 03:39:22;;;;;;;4.73;2.13;;;7.00;99.90;;;;;;4979131;28;20543;-63
2024/02/04 03:41:50;;;;;;;8.40;2.63;;;7.00;99.90;;;;;;4991525;28;20493;-63
2024/02/04 03:44:18;;;;;;;6.77;2.10;;;7.00;99.90;;;;;;4985407;28;20474;-63
2024/02/04 03:46:50;;;;;;;5.80;2.27;;;7.00;99.90;;;;;;4984660;28;21041;-63
2024/02/04 03:49:18;;;;;;;6.00;1.70;;;7.00;99.90;;;;;;4976525;28;20508;-63
2024/02/04 03:51:50;;;;;;;11.33;2.30;;;7.00;99.90;;;;;;4991839;28;20473;-63
2024/02/04 03:54:19;;;;;;;4.70;2.07;;;7.00;99.90;;;;;;4999587;28;20468;-63
2024/02/04 03:56:47;;;;;;;6.60;3.00;;;6.90;99.90;;;;;;4984152;28;20489;-64
2024/02/04 03:59:15;;;;;;;4.53;2.13;;;6.90;99.90;;;;;;4978126;28;20474;-64
2024/02/04 04:01:50;;;;;;;6.10;2.20;;;6.80;99.90;;;;;;4977678;28;21165;-64
2024/02/04 04:04:18;;;;;;;4.57;1.97;;;6.90;99.90;;;;;;4975385;28;20477;-65
2024/02/04 04:06:47;;;;;;;9.27;2.40;;;6.90;99.90;;;;;;4978192;28;20759;-65
2024/02/04 04:09:15;;;;;;;9.37;2.10;;;6.80;99.90;;;;;;4979841;28;20828;-65
2024/02/04 04:11:43;;;;;;;4.93;1.87;;;6.80;99.90;;;;;;4978925;28;20477;-65
2024/02/04 04:14:11;;;;;;;4.43;2.00;;;6.80;99.90;;;;;;4975624;28;20512;-65
2024/02/04 04:16:39;;;;;;;5.90;2.37;;;6.80;99.90;;;;;;4978909;28;20775;-64
2024/02/04 04:19:08;;;;;;;5.47;2.07;;;6.80;99.90;;;;;;4975920;28;20491;-64
2024/02/04 04:21:38;;;;;;;3.43;1.90;;;6.80;99.90;;;;;;4980451;28;21002;-64
2024/02/04 04:24:06;;;;;;;7.43;2.10;;;6.80;99.90;;;;;;4981176;28;21355;-65
2024/02/04 04:26:35;;;;;;;6.80;2.50;;;6.80;99.90;;;;;;4981081;28;20544;-64
2024/02/04 04:29:02;;;;;;;6.67;2.23;;;6.80;99.90;;;;;;4999098;28;20477;-63
2024/02/04 04:31:31;;;;;;;6.73;4.10;;;6.70;99.90;;;;;;4999912;28;20489;-65
2024/02/04 04:33:59;;;;;;;5.67;2.60;;;6.70;99.90;;;;;;4998228;28;20537;-63
2024/02/04 04:36:29;;;;;;;8.53;2.97;;;6.70;99.90;;;;;;4999570;28;20556;-63
2024/02/04 04:38:57;;;;;;;6.23;2.63;;;6.70;99.90;;;;;;4998766;28;20489;-63
2024/02/04 04:41:25;;;;;;;5.17;2.30;;;6.70;99.90;;;;;;4998650;28;20489;-63
2024/02/04 04:43:53;;;;;;;7.77;2.20;;;6.70;99.90;;;;;;4995368;28;20520;-64
2024/02/04 04:46:22;;;;;;;5.40;2.50;;;6.70;99.90;;;;;;4980180;28;21013;-64
2024/02/04 04:48:50;;;;;;;6.50;2.27;;;6.70;99.90;;;;;;4978417;28;20560;-63
2024/02/04 04:51:18;;;;;;;8.23;2.53;;;6.70;99.90;;;;;;4976866;28;20510;-64
2024/02/04 04:53:47;;;;;;;6.07;2.93;;;6.70;99.90;;;;;;4977335;28;20564;-65
2024/02/04 04:56:15;;;;;;;7.10;2.37;;;6.80;99.90;;;;;;4980129;28;20552;-65
2024/02/04 04:58:43;;;;;;;7.53;2.67;;;6.70;99.90;;;;;;4977066;28;20499;-64
2024/02/04 05:01:11;;;;;;;9.33;3.00;;;6.70;99.90;;;;;;4978730;28;20485;-64
2024/02/04 05:03:41;;;;;;;4.97;2.47;;;6.70;99.90;;;;;;4977074;28;20492;-64
2024/02/04 05:06:09;;;;;;;6.87;2.90;;;6.70;99.90;;;;;;4979032;28;20871;-63
2024/02/04 05:08:37;;;;;;;5.27;2.47;;;6.70;99.90;;;;;;4978622;28;20501;-64
2024/02/04 05:11:06;;;;;;;8.40;2.70;;;6.70;99.90;;;;;;4978333;28;20564;-63
2024/02/04 05:13:34;;;;;;;5.33;2.73;;;6.70;99.90;;;;;;4978559;28;20925;-63
2024/02/04 05:16:02;;;;;;;7.30;3.40;;;6.70;99.90;;;;;;4976873;28;21039;-64
2024/02/04 05:18:30;;;;;;;7.80;2.87;;;6.60;99.90;;;;;;4976790;28;20490;-64
2024/02/04 05:20:58;;;;;;;3.90;2.23;;;6.60;99.90;;;;;;4976937;28;20486;-63
2024/02/04 05:23:26;;;;;;;6.17;2.67;;;6.60;99.90;;;;;;4975630;28;21030;-63
2024/02/04 05:25:54;;;;;;;2.70;2.10;;;6.60;99.90;;;;;;4979826;28;21010;-63
2024/02/04 05:28:23;;;;;;;6.70;2.93;;;6.50;99.90;;;;;;4976783;28;20986;-63
2024/02/04 05:30:51;;;;;;;11.33;3.00;;;6.60;99.90;;;;;;4975445;28;20488;-63
2024/02/04 05:33:19;;;;;;;7.30;2.50;;;6.50;99.90;;;;;;4975095;28;20480;-64
2024/02/04 05:35:47;;;;;;;5.80;2.70;;;6.50;99.90;;;;;;4975393;28;20530;-64
2024/02/04 05:38:16;;;;;;;7.23;2.60;;;6.50;99.90;;;;;;4971922;28;20594;-64
2024/02/04 05:40:44;;;;;;;5.17;2.70;;;6.50;99.90;;;;;;4974774;28;20891;-64
2024/02/04 05:43:12;;;;;;;7.13;2.70;;;6.50;99.90;;;;;;4976275;28;20560;-64
2024/02/04 05:45:42;;;;;;;8.77;3.17;;;6.40;99.90;;;;;;4977571;28;20552;-64
2024/02/04 05:48:10;;;;;;;8.87;2.40;;;6.50;99.90;;;;;;4971579;28;20472;-64
2024/02/04 05:50:38;;;;;;;7.90;2.87;;;6.50;99.90;;;;;;4979100;28;20525;-64
2024/02/04 05:53:07;;;;;;;7.90;2.43;;;6.50;99.90;;;;;;4976200;28;20725;-64
2024/02/04 05:55:35;;;;;;;8.60;2.50;;;6.50;99.90;;;;;;4975569;28;20586;-63
2024/02/04 05:58:03;;;;;;;7.23;2.90;;;6.50;99.90;;;;;;4975669;28;20502;-63
2024/02/04 06:00:31;;;;;;;7.97;2.10;;;6.50;99.90;;;;;;4976188;28;20481;-64
2024/02/04 06:03:01;;;;;;;6.03;2.40;;;6.50;99.90;;;;;;4978606;28;20834;-64
2024/02/04 06:05:29;;;;;;;8.00;2.97;;;6.50;99.90;;;;;;4980403;28;21125;-64
2024/02/04 06:07:57;;;;;;;8.10;2.73;;;6.50;99.90;;;;;;4994034;28;23772;-63
2024/02/04 06:10:25;;;;;;;6.93;2.30;;;6.50;99.90;;;;;;4987570;28;21113;-64
2024/02/04 06:12:53;;;;;;;7.77;2.87;;;6.50;99.90;;;;;;4979031;28;21051;-64
2024/02/04 06:15:21;;;;;;;8.63;3.27;;;6.40;99.90;;;;;;4982754;28;20496;-65
2024/02/04 06:17:49;;;;;;;7.47;2.30;;;6.40;99.90;;;;;;4978695;28;21055;-65
2024/02/04 06:20:19;;;;;;;7.83;2.60;;;6.50;99.90;;;;;;4983686;28;20474;-64
2024/02/04 06:22:47;;;;;;;7.20;2.87;;;6.50;99.90;;;;;;4982615;28;20480;-64
2024/02/04 06:25:15;;;;;;;6.17;2.30;;;6.50;99.90;;;;;;4983319;28;20589;-64
2024/02/04 06:27:43;;;;;;;7.10;2.37;;;6.50;99.90;;;;;;4972277;28;21119;-64
2024/02/04 06:30:12;;;;;;;5.80;2.50;;;6.60;99.90;;;;;;4980937;28;20507;-64
2024/02/04 06:32:40;;;;;;;10.73;2.60;;;6.60;99.90;;;;;;4977831;28;21074;-64
2024/02/04 06:35:09;;;;;;;6.10;2.50;;;6.50;99.90;;;;;;4980354;28;20496;-64
2024/02/04 06:37:38;;;;;;;8.10;2.73;;;6.50;99.90;;;;;;4977423;28;20479;-64
2024/02/04 06:40:07;;;;;;;4.43;2.30;;;6.50;99.90;;;;;;4981369;28;20497;-64
2024/02/04 06:42:35;;;;;;;6.47;2.00;;;6.50;99.90;;;;;;4978213;28;20493;-63
2024/02/04 06:45:04;;;;;;;7.03;2.20;;;6.50;99.90;;;;;;4981249;28;20601;-63
2024/02/04 06:47:32;;;;;;;6.20;2.20;;;6.50;99.90;;;;;;4975845;28;20502;-64
2024/02/04 06:50:03;;;;;;;4.23;1.80;;;6.60;99.90;;;;;;4980626;28;20554;-64
2024/02/04 06:52:31;;;;;;;9.30;2.63;;;6.50;99.90;;;;;;4976485;28;20591;-64
2024/02/04 06:55:00;;;;;;;10.37;3.83;;;6.60;99.90;;;;;;4975618;28;20517;-64
2024/02/04 06:57:28;;;;;;;8.63;2.70;;;6.60;99.90;;;;;;4976209;28;20473;-64
2024/02/04 06:59:56;;;;;;;7.77;2.20;;;6.50;99.90;;;;;;4976429;28;20606;-63
2024/02/04 07:02:24;;;;;;;6.97;2.50;;;6.50;99.90;;;;;;4971886;28;20609;-64
2024/02/04 07:04:53;;;;;;;7.17;2.33;;;6.50;99.90;;;;;;4981478;28;21101;-64
2024/02/04 07:07:22;;;;;;;6.80;2.67;;;6.50;99.90;;;;;;4982577;28;20991;-64
2024/02/04 07:09:50;;;;;;;6.47;2.03;;;6.60;99.90;;;;;;4980441;28;20473;-65
2024/02/04 07:12:19;;;;;;;4.23;1.87;;;6.50;99.90;;;;;;4977961;28;20567;-65
2024/02/04 07:14:48;;;;;;;5.50;2.10;;;6.50;99.90;;;;;;4973132;28;20504;-65
2024/02/04 07:17:15;;;;;;;8.23;2.33;;;6.50;99.90;;;;;;4977333;28;20501;-65
2024/02/04 07:19:43;;;;;;;4.47;2.70;;;6.50;99.90;;;;;;4977994;28;21335;-64
2024/02/04 07:22:12;;;;;;;6.43;2.50;;;6.50;99.90;;;;;;4980441;28;20485;-65
2024/02/04 07:24:40;;;;;;;8.30;2.43;;;6.50;99.90;;;;;;4975478;28;20596;-64
2024/02/04 07:27:08;;;;;;;8.20;2.87;;;6.60;99.90;;;;;;4974012;28;20469;-64
2024/02/04 07:29:37;;;;;;;6.43;2.20;;;6.50;99.90;;;;;;4972856;28;20561;-64
2024/02/04 07:32:05;;;;;;;5.87;1.90;;;6.50;99.90;;;;;;4969753;28;20492;-64
2024/02/04 07:34:33;;;;;;;5.03;1.83;;;6.60;99.90;;;;;;4976567;28;20597;-65
2024/02/04 07:37:02;;;;;;;7.17;2.30;;;6.50;99.90;;;;;;4973920;28;21780;-64
2024/02/04 07:39:31;;;;;;;5.60;2.07;;;6.60;99.90;;;;;;4980344;28;20485;-66
2024/02/04 07:42:00;;;;;;;7.27;2.40;;;6.60;99.90;;;;;;4973336;28;20535;-64
2024/02/04 07:44:29;;;;;;;7.07;2.40;;;6.50;99.90;;;;;;4974123;28;20556;-64
2024/02/04 07:46:58;;;;;;;9.50;2.40;;;6.60;99.90;;;;;;4973023;28;20481;-63
2024/02/04 07:49:26;;;;;;;5.60;2.20;;;6.60;99.90;;;;;;4973841;28;20468;-63
2024/02/04 07:51:55;;;;;;;6.33;2.70;;;6.60;99.90;;;;;;4972227;28;20473;-63
2024/02/04 07:54:23;;;;;;;4.80;2.60;;;6.60;99.90;;;;;;4968698;28;20478;-63
2024/02/04 07:56:51;;;;;;;8.13;2.70;;;6.60;99.90;;;;;;4975242;28;20538;-63
2024/02/04 07:59:19;;;;;;;7.50;2.57;;;6.60;99.90;;;;;;4970794;28;20499;-65
2024/02/04 08:01:46;;;;;;;6.90;2.80;;;6.60;99.90;;;;;;4974004;28;20954;-64
2024/02/04 08:04:16;;;;;;;8.37;2.80;;;6.60;99.90;;;;;;4979807;28;20499;-64
2024/02/04 08:06:44;;;;;;;7.07;2.87;;;6.70;99.90;;;;;;4979261;28;20528;-64
2024/02/04 08:09:12;;;;;;;8.03;2.47;;;6.70;99.90;;;;;;4980227;28;20885;-62
2024/02/04 08:11:41;;;;;;;8.33;2.40;;;6.70;99.90;;;;;;4962803;28;20603;-63
2024/02/04 08:14:09;;;;;;;6.87;2.77;;;6.70;99.90;;;;;;4974317;28;20509;-62
2024/02/04 08:16:37;;;;;;;8.50;2.70;;;6.70;99.90;;;;;;4974772;28;20490;-63
2024/02/04 08:19:06;;;;;;;9.03;3.50;;;6.80;99.90;;;;;;4988726;28;20513;-64
2024/02/04 08:21:36;;;;;;;7.57;2.50;;;6.80;99.90;;;;;;4987643;28;20493;-64
2024/02/04 08:24:04;;;;;;;10.13;2.80;;;6.80;99.90;;;;;;4982269;28;20478;-65
2024/02/04 08:26:32;;;;;;;8.67;3.30;;;6.80;99.90;;;;;;4977501;28;20516;-65
2024/02/04 08:29:00;;;;;;;6.23;3.23;;;6.90;99.90;;;;;;4978074;28;20941;-64
2024/02/04 08:31:30;;;;;;;7.53;2.40;;;6.90;99.90;;;;;;4978134;28;20559;-65
2024/02/04 08:33:58;;;;;;;9.27;3.50;;;6.90;99.90;;;;;;4975188;28;20559;-66
2024/02/04 08:36:27;;;;;;;6.00;2.73;;;6.90;99.90;;;;;;4981692;28;20556;-66
2024/02/04 08:38:56;;;;;;;7.13;3.10;;;6.90;99.90;;;;;;4979373;28;20477;-66
2024/02/04 08:41:24;;;;;;;13.80;3.07;;;6.90;99.90;;;;;;4978866;28;20540;-66
2024/02/04 08:43:52;;;;;;;4.80;3.23;;;6.90;99.90;;;;;;4979258;28;20585;-65
2024/02/04 08:46:20;;;;;;;6.67;3.30;;;6.90;99.90;;;;;;4978202;28;20490;-64
2024/02/04 08:48:48;;;;;;;9.03;3.73;;;7.00;99.90;;;;;;4972432;28;20481;-65
2024/02/04 08:51:18;;;;;;;7.00;3.43;;;7.00;99.90;;;;;;4939153;28;20500;-65
2024/02/04 08:53:46;;;;;;;9.57;3.40;;;7.00;99.90;;;;;;4938308;28;20472;-66
2024/02/04 08:56:15;;;;;;;6.47;3.10;;;7.00;99.90;;;;;;4940272;28;20484;-66
2024/02/04 08:58:44;;;;;;;7.50;3.27;;;7.00;99.90;;;;;;4943644;28;20497;-63
2024/02/04 09:01:12;;;;;;;5.57;3.87;;;7.00;99.90;;;;;;4959229;28;20493;-64
2024/02/04 09:03:40;;;;;;;9.63;4.00;;;7.10;99.90;;;;;;4978409;28;20478;-64
2024/02/04 09:06:08;;;;;;;9.90;4.00;;;7.10;99.90;;;;;;4978559;28;20496;-65
2024/02/04 09:08:37;;;;;;;8.53;4.30;;;7.10;99.90;;;;;;4969659;28;20482;-64
2024/02/04 09:11:05;;;;;;;7.07;3.53;;;7.20;99.90;;;;;;4973740;28;20990;-66
2024/02/04 09:13:35;;;;;;;8.10;3.30;;;7.20;99.90;;;;;;4966994;28;20478;-63
2024/02/04 09:19:51;;;;;;;7.63;3.77;;;7.20;99.90;;;;;;4943741;28;20550;-64
2024/02/04 09:22:19;;;;;;;6.43;3.40;;;7.20;99.90;;;;;;4969304;28;20493;-64
2024/02/04 09:24:47;;;;;;;7.07;3.60;;;7.20;99.90;;;;;;4962218;28;20547;-64
2024/02/04 09:27:16;;;;;;;6.20;3.80;;;7.20;99.90;;;;;;4971951;28;21100;-65
2024/02/04 09:29:45;;;;;;;6.97;3.53;;;7.30;99.90;;;;;;4964798;28;20470;-64
2024/02/04 09:32:13;;;;;;;10.90;5.20;;;7.30;99.90;;;;;;4967684;28;20901;-65
2024/02/04 09:34:45;;;;;;;10.27;3.60;;;7.30;99.90;;;;;;4968781;28;21579;-65
2024/02/04 09:37:14;;;;;;;7.70;3.73;;;7.30;99.90;;;;;;4968248;28;20868;-64
2024/02/04 09:39:42;;;;;;;7.23;3.80;;;7.30;99.90;;;;;;4969395;28;21182;-65
2024/02/04 09:42:18;;;;;;;6.50;3.40;;;7.30;99.90;;;;;;4964947;28;20551;-65
2024/02/04 09:44:48;;;;;;;9.87;4.27;;;7.40;99.90;;;;;;4966932;28;20496;-66
2024/02/04 09:47:16;;;;;;;6.90;3.40;;;7.40;99.90;;;;;;4966152;28;20473;-65
2024/02/04 09:49:44;;;;;;;9.33;4.27;;;7.40;99.90;;;;;;4970160;28;21073;-65
2024/02/04 09:52:14;;;;;;;6.00;3.07;;;7.50;99.90;;;;;;4964376;28;20580;-66
2024/02/04 09:54:46;;;;;;;10.90;4.03;;;7.50;99.90;;;;;;4968577;28;20577;-65
2024/02/04 09:57:15;;;;;;;5.73;3.30;;;7.50;99.90;;;;;;4965091;28;20840;-65
2024/02/04 09:59:46;;;;;;;9.30;3.50;;;7.50;99.90;;;;;;4969271;28;20474;-64
2024/02/04 10:02:16;;;;;;;8.33;3.20;;;7.50;99.90;;;;;;4970089;28;20497;-65
2024/02/04 10:04:48;;;;;;;10.80;3.33;;;7.50;99.90;;;;;;4970176;28;20505;-65
2024/02/04 10:07:18;;;;;;;9.30;3.70;;;7.50;99.90;;;;;;4969233;28;20558;-65
2024/02/04 10:09:46;;;;;;;10.13;4.30;;;7.50;99.90;;;;;;4971268;28;20483;-63
2024/02/04 10:12:15;;;;;;;8.20;3.20;;;7.60;99.90;;;;;;4967485;28;21005;-66
2024/02/04 10:14:43;;;;;;;14.43;3.70;;;7.60;99.90;;;;;;4969755;28;20509;-65
2024/02/04 10:17:11;;;;;;;11.67;4.17;;;7.60;99.90;;;;;;4978075;28;20508;-64
2024/02/04 10:19:40;;;;;;;10.10;3.40;;;7.60;99.90;;;;;;4964852;28;20552;-63
2024/02/04 10:22:08;;;;;;;7.27;3.30;;;7.70;99.90;;;;;;4969189;28;20485;-63
2024/02/04 10:24:36;;;;;;;7.17;3.20;;;7.70;99.90;;;;;;4970106;28;20501;-63
2024/02/04 10:27:05;;;;;;;12.50;3.97;;;7.60;99.90;;;;;;4969415;28;20476;-65
2024/02/04 10:29:34;;;;;;;7.30;3.70;;;7.60;99.90;;;;;;4964472;28;21078;-63
2024/02/04 10:32:02;;;;;;;10.03;3.87;;;7.60;99.90;;;;;;4980017;28;20462;-63
2024/02/04 10:34:30;;;;;;;7.60;3.23;;;7.60;99.90;;;;;;4993445;28;20467;-63
2024/02/04 10:37:00;;;;;;;9.57;3.20;;;7.60;99.90;;;;;;4978793;28;20469;-63
2024/02/04 10:39:28;;;;;;;8.30;3.87;;;7.70;99.90;;;;;;4957047;28;21080;-63
2024/02/04 10:41:59;;;;;;;12.47;4.03;;;7.70;99.90;;;;;;4955947;28;20508;-63
2024/02/04 10:44:29;;;;;;;11.10;4.10;;;7.70;99.90;;;;;;4962925;28;20508;-63
2024/02/04 10:46:58;;;;;;;10.93;2.90;;;7.70;99.90;;;;;;4965010;28;20484;-64
2024/02/04 10:49:27;;;;;;;9.00;3.23;;;7.70;99.90;;;;;;4969076;28;20501;-63
2024/02/04 10:51:59;;;;;;;7.53;2.97;;;7.80;99.90;;;;;;4962629;28;20486;-60
2024/02/04 10:54:31;;;;;;;11.00;4.00;;;7.80;99.90;;;;;;4967574;28;20472;-62
2024/02/04 10:57:06;;;;;;;11.17;2.80;;;7.80;99.90;;;;;;4966379;28;20560;-61
2024/02/04 10:59:35;;;;;;;15.93;3.77;;;7.80;99.90;;;;;;4967040;28;21035;-61
2024/02/04 11:02:06;;;;;;;5.63;2.67;;;7.90;99.90;;;;;;4966904;28;20485;-61
2024/02/04 11:04:35;;;;;;;8.97;3.43;;;7.90;99.90;;;;;;4966693;28;21116;-61
2024/02/04 11:07:05;;;;;;;9.33;3.50;;;7.90;99.90;;;;;;4972377;28;20474;-61
2024/02/04 11:09:34;;;;;;;5.83;3.70;;;8.00;99.90;;;;;;4973403;28;20519;-61
2024/02/04 11:12:07;;;;;;;7.43;3.00;;;8.00;99.90;;;;;;4967297;28;20539;-62
2024/02/04 11:14:37;;;;;;;7.50;3.13;;;8.10;99.90;;;;;;4966800;28;20509;-61
2024/02/04 11:17:44;;;;;;;7.97;3.63;;;8.00;99.90;;;;;;4969896;28;20533;-61
2024/02/04 11:20:28;;;;;;;8.37;3.60;;;8.00;99.90;;;;;;4945709;28;21002;-60
2024/02/04 11:23:29;;;;;;;12.83;2.80;;;8.00;99.90;;;;;;4969350;28;20531;-61
2024/02/04 11:25:59;;;;;;;8.40;3.30;;;8.00;99.90;;;;;;4961313;28;20608;-64
2024/02/04 11:28:28;;;;;;;14.80;3.30;;;8.10;99.90;;;;;;4973620;28;20466;-61
2024/02/04 11:30:57;;;;;;;7.77;2.67;;;8.10;99.90;;;;;;4972785;28;20477;-61
2024/02/04 11:33:25;;;;;;;8.00;3.23;;;8.10;99.90;;;;;;4970737;28;20509;-61
2024/02/04 11:36:00;;;;;;;7.83;3.00;;;8.20;99.90;;;;;;4971214;28;20570;-63
2024/02/04 11:38:33;;;;;;;7.57;3.50;;;8.20;99.90;;;;;;4979692;28;20515;-61
2024/02/04 11:41:03;;;;;;;10.43;3.03;;;8.10;99.90;;;;;;4983345;28;20489;-61
2024/02/04 11:43:34;;;;;;;9.90;3.47;;;8.20;99.90;;;;;;4984303;28;20488;-61
2024/02/04 11:46:05;;;;;;;7.37;2.87;;;8.20;99.90;;;;;;4974586;28;20497;-62
2024/02/04 11:48:36;;;;;;;8.70;3.10;;;8.20;99.90;;;;;;4978068;28;20470;-66
2024/02/04 11:51:07;;;;;;;10.67;2.67;;;8.30;99.90;;;;;;4983078;28;21194;-62
2024/02/04 11:53:36;;;;;;;8.40;3.50;;;8.30;99.90;;;;;;4971275;28;20497;-62
2024/02/04 11:56:07;;;;;;;6.30;2.70;;;8.30;99.90;;;;;;4969209;28;20497;-61
2024/02/04 11:58:36;;;;;;;8.33;2.90;;;8.40;99.90;;;;;;4968017;28;20478;-63
2024/02/04 12:01:04;;;;;;;7.03;2.83;;;8.40;99.90;;;;;;4966116;28;20497;-61
2024/02/04 12:03:33;;;;;;;9.03;2.87;;;8.40;99.90;;;;;;4963735;28;20562;-63
2024/02/04 12:06:02;;;;;;;7.47;3.33;;;8.50;99.90;;;;;;4963519;28;20785;-62
2024/02/04 12:08:32;;;;;;;10.60;3.27;;;8.40;99.90;;;;;;4964070;28;20910;-61
2024/02/04 12:11:02;;;;;;;10.10;3.07;;;8.50;99.90;;;;;;4968973;28;20481;-62
2024/02/04 12:13:37;;;;;;;9.03;3.63;;;8.50;99.90;;;;;;4968323;28;20465;-62
2024/02/04 12:16:09;;;;;;;14.03;3.27;;;8.60;99.90;;;;;;4963317;28;20537;-62
2024/02/04 12:18:48;;;;;;;6.60;3.13;;;8.60;99.90;;;;;;4962307;28;20561;-62
2024/02/04 12:21:16;;;;;;;5.63;2.57;;;8.60;99.90;;;;;;4963625;28;20548;-60
2024/02/04 12:23:44;;;;;;;7.23;2.80;;;8.60;99.90;;;;;;4965898;28;20482;-61
2024/02/04 12:26:14;;;;;;;9.40;3.17;;;8.70;99.90;;;;;;4964626;28;20941;-62
2024/02/04 12:28:44;;;;;;;9.77;3.27;;;8.60;99.90;;;;;;4970735;28;20554;-61
2024/02/04 12:31:18;;;;;;;11.43;3.50;;;8.70;99.90;;;;;;4967614;28;20495;-61
2024/02/04 12:33:54;;;;;;;8.40;2.70;;;8.70;99.90;;;;;;4965113;28;20468;-62
2024/02/04 12:36:23;;;;;;;12.93;3.50;;;8.70;99.90;;;;;;4962851;28;20524;-61
2024/02/04 12:38:55;;;;;;;17.60;5.57;;;8.70;99.90;;;;;;4969549;28;20559;-61
2024/02/04 12:41:24;;;;;;;8.13;3.40;;;8.70;99.90;;;;;;4968677;28;20569;-61
2024/02/04 12:43:54;;;;;;;7.63;3.00;;;8.70;99.90;;;;;;4973864;28;20500;-61
2024/02/04 12:46:23;;;;;;;16.43;9.50;;;8.80;99.90;;;;;;4978165;28;20603;-61
2024/02/04 12:48:55;;;;;;;9.50;4.80;;;8.80;99.90;;;;;;4978885;28;20478;-60
2024/02/04 12:51:27;;;;;;;9.90;5.47;;;8.90;99.90;;;;;;4973995;28;20491;-61
2024/02/04 12:54:09;;;;;;;11.50;4.50;;;8.90;99.90;;;;;;4966186;28;20953;-61
2024/02/04 12:56:45;;;;;;;13.50;6.30;;;8.90;99.90;;;;;;4967151;28;20500;-65
2024/02/04 12:59:25;;;;;;;10.53;4.30;;;8.90;99.90;;;;;;4969035;28;20489;-63
2024/02/04 13:01:55;;;;;;;11.00;4.17;;;8.90;99.90;;;;;;4971041;28;20897;-63
2024/02/04 13:04:23;;;;;;;10.80;3.20;;;8.90;99.90;;;;;;4968172;28;20504;-65
2024/02/04 13:06:52;;;;;;;10.63;4.23;;;8.90;99.90;;;;;;4968528;28;20477;-66
2024/02/04 13:09:21;;;;;;;9.30;3.30;;;8.90;99.90;;;;;;4969187;28;20722;-65